createdAt,value
2022-09-13T00:01:01.418Z,2.17
2022-09-13T00:03:28.546Z,5.40
2022-09-13T00:05:55.176Z,3.35
2022-09-13T00:08:21.962Z,2.80
2022-09-13T00:10:48.943Z,4.55
2022-09-13T00:13:17.337Z,3.55
2022-09-13T00:15:49.380Z,3.63
2022-09-13T00:18:17.615Z,2.55
2022-09-13T00:20:44.124Z,2.25
2022-09-13T00:23:12.015Z,3.25
2022-09-13T00:25:39.145Z,2.63
2022-09-13T00:28:06.405Z,2.58
2022-09-13T00:30:33.416Z,3.17
2022-09-13T00:33:00.121Z,5.53
2022-09-13T00:35:26.577Z,5.32
2022-09-13T00:37:53.038Z,4.55
2022-09-13T00:40:21.824Z,4.00
2022-09-13T00:42:48.383Z,5.22
2022-09-13T00:45:18.696Z,4.35
2022-09-13T00:47:56.100Z,3.75
2022-09-13T00:50:31.484Z,4.75
2022-09-13T00:53:19.306Z,3.58
2022-09-13T00:55:51.232Z,3.38
2022-09-13T00:58:25.555Z,3.28
2022-09-13T01:00:53.827Z,3.22
2022-09-13T01:03:23.939Z,3.58
2022-09-13T01:06:02.349Z,4.65
2022-09-13T01:08:31.371Z,4.07
2022-09-13T01:11:01.622Z,3.05
2022-09-13T01:13:32.134Z,6.38
2022-09-13T01:15:59.826Z,3.13
2022-09-13T01:18:26.866Z,2.65
2022-09-13T01:21:30.457Z,4.95
2022-09-13T01:24:04.273Z,2.40
2022-09-13T01:26:48.720Z,2.78
2022-09-13T01:29:41.075Z,2.92
2022-09-13T01:32:41.527Z,2.15
2022-09-13T01:35:17.019Z,3.45
2022-09-13T01:38:03.856Z,4.05
2022-09-13T01:40:46.039Z,3.75
2022-09-13T01:43:21.400Z,2.33
2022-09-13T01:46:10.732Z,2.50
2022-09-13T01:48:59.218Z,2.78
2022-09-13T01:51:54.843Z,2.53
2022-09-13T01:54:42.090Z,2.20
2022-09-13T01:57:21.092Z,1.73
2022-09-13T01:59:57.341Z,1.90
2022-09-13T02:02:31.889Z,3.60
2022-09-13T02:05:10.291Z,2.60
2022-09-13T02:07:49.638Z,3.85
2022-09-13T02:10:28.055Z,3.78
2022-09-13T02:12:57.914Z,2.70
2022-09-13T02:15:37.095Z,3.47
2022-09-13T02:18:12.423Z,3.90
2022-09-13T02:20:43.182Z,2.85
2022-09-13T02:23:18.831Z,3.10
2022-09-13T02:28:19.649Z,2.00
2022-09-13T02:30:51.658Z,2.92
2022-09-13T02:33:32.675Z,2.28
2022-09-13T02:36:09.911Z,1.98
2022-09-13T02:38:45.311Z,2.58
2022-09-13T02:41:25.571Z,2.35
2022-09-13T02:44:14.521Z,3.80
2022-09-13T02:46:57.400Z,2.63
2022-09-13T02:49:38.753Z,3.50
2022-09-13T02:52:11.872Z,4.18
2022-09-13T02:54:56.130Z,1.77
2022-09-13T02:57:32.920Z,1.92
2022-09-13T03:00:00.323Z,1.77
2022-09-13T03:02:31.792Z,3.88
2022-09-13T03:04:59.349Z,2.17
2022-09-13T03:07:26.990Z,5.47
2022-09-13T03:10:06.737Z,2.90
2022-09-13T03:13:03.943Z,4.20
2022-09-13T03:15:52.316Z,3.00
2022-09-13T03:18:18.799Z,3.08
2022-09-13T03:21:18.637Z,4.80
2022-09-13T03:24:03.865Z,2.60
2022-09-13T03:26:46.454Z,2.43
2022-09-13T03:29:26.041Z,2.25
2022-09-13T03:32:07.598Z,2.80
2022-09-13T03:34:53.688Z,2.30
2022-09-13T03:40:01.998Z,4.32
2022-09-13T03:42:34.393Z,4.10
2022-09-13T03:45:03.681Z,2.55
2022-09-13T03:47:34.128Z,2.45
2022-09-13T03:50:02.168Z,3.08
2022-09-13T03:52:29.043Z,5.13
2022-09-13T03:54:55.534Z,2.60
2022-09-13T03:57:23.186Z,2.05
2022-09-13T03:59:55.264Z,3.88
2022-09-13T04:02:23.737Z,3.97
2022-09-13T04:04:50.641Z,3.42
2022-09-13T04:07:19.981Z,2.60
2022-09-13T04:09:46.736Z,3.15
2022-09-13T04:12:15.153Z,3.13
2022-09-13T04:14:45.635Z,2.10
2022-09-13T04:17:13.357Z,2.35
2022-09-13T04:19:40.429Z,3.10
2022-09-13T04:22:07.245Z,1.85
2022-09-13T04:24:33.756Z,2.58
2022-09-13T04:27:01.411Z,2.90
2022-09-13T04:29:27.977Z,1.73
2022-09-13T04:31:55.813Z,4.10
2022-09-13T04:34:23.511Z,2.30
2022-09-13T04:36:52.217Z,2.30
2022-09-13T04:39:21.655Z,4.25
2022-09-13T04:41:49.116Z,3.08
2022-09-13T04:44:17.155Z,2.47
2022-09-13T04:46:47.538Z,2.30
2022-09-13T04:49:15.238Z,2.60
2022-09-13T04:51:41.793Z,2.10
2022-09-13T04:54:14.563Z,2.47
2022-09-13T04:56:42.850Z,1.70
2022-09-13T04:59:10.820Z,2.42
2022-09-13T05:01:37.444Z,1.60
2022-09-13T05:04:05.771Z,1.80
2022-09-13T05:06:32.314Z,2.58
2022-09-13T05:08:59.021Z,3.90
2022-09-13T05:11:27.617Z,3.22
2022-09-13T05:13:59.223Z,3.83
2022-09-13T05:16:29.248Z,2.17
2022-09-13T05:18:55.793Z,2.75
2022-09-13T05:21:22.461Z,3.70
2022-09-13T05:23:50.328Z,4.95
2022-09-13T05:26:16.835Z,2.50
2022-09-13T05:28:43.823Z,4.53
2022-09-13T05:31:26.202Z,4.68
2022-09-13T05:33:55.311Z,43.92
2022-09-13T05:36:22.011Z,43.10
2022-09-13T05:38:48.920Z,48.80
2022-09-13T05:41:15.529Z,26.00
2022-09-13T05:43:42.051Z,30.20
2022-09-13T05:46:12.816Z,18.55
2022-09-13T05:48:40.310Z,17.92
2022-09-13T05:51:12.274Z,22.85
2022-09-13T05:53:40.165Z,15.07
2022-09-13T05:56:08.335Z,11.25
2022-09-13T05:58:38.364Z,11.95
2022-09-13T06:01:05.043Z,14.48
2022-09-13T06:03:31.537Z,14.75
2022-09-13T06:05:58.784Z,5.15
2022-09-13T06:08:30.349Z,8.73
2022-09-13T06:11:01.666Z,7.30
2022-09-13T06:13:29.222Z,4.70
2022-09-13T06:16:00.586Z,8.45
2022-09-13T06:18:27.799Z,7.25
2022-09-13T06:21:03.802Z,7.32
2022-09-13T06:23:31.041Z,5.32
2022-09-13T06:26:09.502Z,5.60
2022-09-13T06:28:37.613Z,5.15
2022-09-13T06:31:06.926Z,3.33
2022-09-13T06:33:34.830Z,4.50
2022-09-13T06:36:02.781Z,2.95
2022-09-13T06:38:29.658Z,3.28
2022-09-13T06:41:09.997Z,2.13
2022-09-13T06:43:37.014Z,4.90
2022-09-13T06:46:09.314Z,2.88
2022-09-13T06:48:38.542Z,1.20
2022-09-13T06:51:07.850Z,4.13
2022-09-13T06:53:35.690Z,2.40
2022-09-13T06:56:03.780Z,3.72
2022-09-13T06:58:31.981Z,1.85
2022-09-13T07:01:14.852Z,3.17
2022-09-13T07:03:54.244Z,6.40
2022-09-13T07:06:22.921Z,3.65
2022-09-13T07:08:51.670Z,2.38
2022-09-13T07:11:20.261Z,2.83
2022-09-13T07:13:55.080Z,4.10
2022-09-13T07:16:27.050Z,2.50
2022-09-13T07:18:54.800Z,3.05
2022-09-13T07:21:22.390Z,2.13
2022-09-13T07:23:49.837Z,2.13
2022-09-13T07:26:16.403Z,1.17
2022-09-13T07:28:45.194Z,2.30
2022-09-13T07:31:17.803Z,4.25
2022-09-13T07:33:45.325Z,6.60
2022-09-13T07:36:13.251Z,5.00
2022-09-13T07:38:46.170Z,4.13
2022-09-13T07:41:15.278Z,4.10
2022-09-13T07:43:41.848Z,5.38
2022-09-13T07:46:14.173Z,11.02
2022-09-13T07:48:43.251Z,2.30
2022-09-13T07:51:12.743Z,2.70
2022-09-13T07:53:41.649Z,7.65
2022-09-13T07:56:16.370Z,5.22
2022-09-13T07:58:44.679Z,3.45
2022-09-13T08:01:46.661Z,3.90
2022-09-13T08:04:17.237Z,3.67
2022-09-13T08:06:44.392Z,3.95
2022-09-13T08:09:11.288Z,6.18
2022-09-13T08:11:45.780Z,4.28
2022-09-13T08:14:16.231Z,2.92
2022-09-13T08:16:43.235Z,4.15
2022-09-13T08:19:13.427Z,1.48
2022-09-13T08:21:41.974Z,2.03
2022-09-13T08:24:13.618Z,1.58
2022-09-13T08:26:40.277Z,7.75
2022-09-13T08:29:07.101Z,5.45
2022-09-13T08:31:34.245Z,3.67
2022-09-13T08:34:01.246Z,2.42
2022-09-13T08:36:28.670Z,8.18
2022-09-13T08:39:00.486Z,1.38
2022-09-13T08:41:44.366Z,2.88
2022-09-13T08:44:37.261Z,2.45
2022-09-13T08:47:28.856Z,2.92
2022-09-13T08:50:18.315Z,4.03
2022-09-13T08:53:03.536Z,2.08
2022-09-13T08:55:54.848Z,3.60
2022-09-13T08:58:49.426Z,2.40
2022-09-13T09:01:34.275Z,3.83
2022-09-13T09:04:04.521Z,2.35
2022-09-13T09:06:31.342Z,4.97
2022-09-13T09:09:13.249Z,1.08
2022-09-13T09:11:51.840Z,3.88
2022-09-13T09:14:32.056Z,3.25
2022-09-13T09:17:02.321Z,1.67
2022-09-13T09:19:36.179Z,4.65
2022-09-13T09:22:10.108Z,2.05
2022-09-13T09:24:38.864Z,3.28
2022-09-13T09:27:15.461Z,1.25
2022-09-13T09:29:44.613Z,3.17
2022-09-13T09:32:37.429Z,3.53
2022-09-13T09:35:20.140Z,1.42
2022-09-13T09:38:08.748Z,3.13
2022-09-13T09:40:38.224Z,4.32
2022-09-13T09:43:38.918Z,1.10
2022-09-13T09:46:10.066Z,3.83
2022-09-13T09:48:44.287Z,2.65
2022-09-13T09:51:14.215Z,4.00
2022-09-13T09:53:48.724Z,2.03
2022-09-13T09:56:25.608Z,6.60
2022-09-13T09:58:56.668Z,3.80
2022-09-13T10:01:26.114Z,1.40
2022-09-13T10:04:08.687Z,2.17
2022-09-13T10:06:37.689Z,1.50
2022-09-13T10:09:18.143Z,2.00
2022-09-13T10:11:44.597Z,3.60
2022-09-13T10:14:36.414Z,1.48
2022-09-13T10:17:04.829Z,2.85
2022-09-13T10:19:32.361Z,2.72
2022-09-13T10:22:10.271Z,5.30
2022-09-13T10:24:37.571Z,2.10
2022-09-13T10:27:05.339Z,1.60
2022-09-13T10:29:33.025Z,1.52
2022-09-13T10:32:03.698Z,2.03
2022-09-13T10:34:36.062Z,3.13
2022-09-13T10:37:17.780Z,1.60
2022-09-13T10:39:53.375Z,1.45
2022-09-13T10:44:57.274Z,1.95
2022-09-13T10:47:29.713Z,2.83
2022-09-13T10:49:59.296Z,3.17
2022-09-13T10:52:27.348Z,3.33
2022-09-13T10:54:55.576Z,1.58
2022-09-13T10:57:34.857Z,1.70
2022-09-13T11:00:02.052Z,4.88
2022-09-13T11:02:57.499Z,2.40
2022-09-13T11:05:41.683Z,1.63
2022-09-13T11:08:25.968Z,1.23
2022-09-13T11:11:20.943Z,3.45
2022-09-13T11:13:54.380Z,1.17
2022-09-13T11:16:34.584Z,3.60
2022-09-13T11:19:33.514Z,2.78
2022-09-13T11:22:31.971Z,2.42
2022-09-13T11:25:22.700Z,1.70
2022-09-13T11:28:10.585Z,1.98
2022-09-13T11:31:11.656Z,1.70
2022-09-13T11:33:53.629Z,7.15
2022-09-13T11:36:43.428Z,2.70
2022-09-13T11:39:43.067Z,2.85
2022-09-13T11:42:31.285Z,2.30
2022-09-13T11:45:21.725Z,3.90
2022-09-13T11:48:03.067Z,2.65
2022-09-13T11:51:28.012Z,3.38
2022-09-13T11:54:01.628Z,11.45
2022-09-13T11:56:39.817Z,4.75
2022-09-13T11:59:21.154Z,1.95
2022-09-13T12:01:57.308Z,2.08
2022-09-13T12:04:33.640Z,2.47
2022-09-13T12:07:06.717Z,3.53
2022-09-13T12:09:41.176Z,4.57
2022-09-13T12:12:12.021Z,4.07
2022-09-13T12:15:02.551Z,1.58
2022-09-13T12:17:45.266Z,5.22
2022-09-13T12:20:41.080Z,3.05
2022-09-13T12:23:17.807Z,3.85
2022-09-13T12:25:52.893Z,3.47
2022-09-13T12:28:24.789Z,5.22
2022-09-13T12:31:02.348Z,3.85
2022-09-13T12:33:28.963Z,5.32
2022-09-13T12:36:17.513Z,2.38
2022-09-13T12:39:26.184Z,1.90
2022-09-13T12:42:18.150Z,6.60
2022-09-13T12:45:09.493Z,3.67
2022-09-13T12:48:04.657Z,1.50
2022-09-13T12:50:52.788Z,2.03
2022-09-13T12:53:19.194Z,5.43
2022-09-13T12:56:03.872Z,1.48
2022-09-13T12:58:47.038Z,6.63
2022-09-13T13:01:21.614Z,4.18
2022-09-13T13:04:00.271Z,1.83
2022-09-13T13:06:38.493Z,3.38
2022-09-13T13:09:26.501Z,3.53
2022-09-13T13:11:58.366Z,4.45
2022-09-13T13:14:40.145Z,2.92
2022-09-13T13:17:44.075Z,3.60
2022-09-13T13:20:38.243Z,3.00
2022-09-13T13:23:16.554Z,2.58
2022-09-13T13:26:02.139Z,7.10
2022-09-13T13:28:44.241Z,3.15
2022-09-13T13:31:30.954Z,5.90
2022-09-13T13:34:23.743Z,2.67
2022-09-13T13:36:58.265Z,1.00
2022-09-13T13:39:27.344Z,3.50
2022-09-13T13:41:59.156Z,7.25
2022-09-13T13:44:25.674Z,3.00
2022-09-13T13:47:14.726Z,2.10
2022-09-13T13:49:41.204Z,2.60
2022-09-13T13:52:22.296Z,2.30
2022-09-13T13:54:53.469Z,3.88
2022-09-13T13:57:31.885Z,2.05
2022-09-13T14:00:21.302Z,3.33
2022-09-13T14:02:50.866Z,2.38
2022-09-13T14:05:22.328Z,4.55
2022-09-13T14:08:17.962Z,2.63
2022-09-13T14:11:07.355Z,2.27
2022-09-13T14:13:39.809Z,3.50
2022-09-13T14:16:14.154Z,6.97
2022-09-13T14:19:25.666Z,2.17
2022-09-13T14:22:16.478Z,2.53
2022-09-13T14:24:51.186Z,2.38
2022-09-13T14:27:33.374Z,4.37
2022-09-13T14:30:04.573Z,4.13
2022-09-13T14:32:43.974Z,7.10
2022-09-13T14:35:34.803Z,6.35
2022-09-13T14:38:18.382Z,3.88
2022-09-13T14:40:50.003Z,2.28
2022-09-13T14:43:21.834Z,4.97
2022-09-13T14:45:52.238Z,1.90
2022-09-13T14:48:51.449Z,2.60
2022-09-13T14:51:18.355Z,5.55
2022-09-13T14:53:49.155Z,2.53
2022-09-13T14:56:41.659Z,3.97
2022-09-13T14:59:22.099Z,2.67
2022-09-13T15:01:48.646Z,1.48
2022-09-13T15:04:18.832Z,3.58
2022-09-13T15:06:45.778Z,2.83
2022-09-13T15:09:12.182Z,1.67
2022-09-13T15:11:43.124Z,3.17
2022-09-13T15:14:12.631Z,3.17
2022-09-13T15:17:10.188Z,2.05
2022-09-13T15:19:51.359Z,3.17
2022-09-13T15:22:20.162Z,4.05
2022-09-13T15:24:58.192Z,3.03
2022-09-13T15:27:26.664Z,5.38
2022-09-13T15:29:56.199Z,2.83
2022-09-13T15:32:30.661Z,2.13
2022-09-13T15:34:59.559Z,4.43
2022-09-13T15:37:36.401Z,3.70
2022-09-13T15:40:14.906Z,3.50
2022-09-13T15:42:45.545Z,3.85
2022-09-13T15:45:12.415Z,1.65
2022-09-13T15:47:38.969Z,4.53
2022-09-13T15:50:05.977Z,5.47
2022-09-13T15:52:32.954Z,3.83
2022-09-13T15:54:59.435Z,2.00
2022-09-13T15:57:28.610Z,6.40
2022-09-13T15:59:56.785Z,6.88
2022-09-13T16:02:28.726Z,3.20
2022-09-13T16:04:55.923Z,1.70
2022-09-13T16:07:23.934Z,3.60
2022-09-13T16:09:50.932Z,4.75
2022-09-13T16:12:19.087Z,4.15
2022-09-13T16:14:46.145Z,4.18
2022-09-13T16:17:20.359Z,3.63
2022-09-13T16:19:46.855Z,2.70
2022-09-13T16:22:13.377Z,3.28
2022-09-13T16:24:39.919Z,5.05
2022-09-13T16:27:06.782Z,1.77
2022-09-13T16:29:33.283Z,3.22
2022-09-13T16:32:01.667Z,2.97
2022-09-13T16:34:28.170Z,5.43
2022-09-13T16:36:54.665Z,3.13
2022-09-13T16:39:21.243Z,4.85
2022-09-13T16:41:48.631Z,4.68
2022-09-13T16:44:15.126Z,9.23
2022-09-13T16:46:42.801Z,3.10
2022-09-13T16:49:09.423Z,3.63
2022-09-13T16:51:36.636Z,4.07
2022-09-13T16:54:03.639Z,3.35
2022-09-13T16:56:30.856Z,5.75
2022-09-13T16:58:57.604Z,4.75
2022-09-13T17:01:27.034Z,3.88
2022-09-13T17:03:55.053Z,2.17
2022-09-13T17:06:23.793Z,1.50
2022-09-13T17:09:01.531Z,2.20
2022-09-13T17:11:30.381Z,4.20
2022-09-13T17:13:57.512Z,7.50
2022-09-13T17:16:33.206Z,6.60
2022-09-13T17:19:02.443Z,5.53
2022-09-13T17:21:29.828Z,3.92
2022-09-13T17:23:56.322Z,3.55
2022-09-13T17:26:23.430Z,5.35
2022-09-13T17:28:49.945Z,7.32
2022-09-13T17:31:16.839Z,3.75
2022-09-13T17:33:43.438Z,4.80
2022-09-13T17:36:13.507Z,2.60
2022-09-13T17:38:40.728Z,4.13
2022-09-13T17:41:11.262Z,4.38
2022-09-13T17:43:39.659Z,1.63
2022-09-13T17:46:08.459Z,5.03
2022-09-13T17:48:35.320Z,7.35
2022-09-13T17:51:07.553Z,4.28
2022-09-13T17:53:39.901Z,4.85
2022-09-13T17:56:07.592Z,5.03
2022-09-13T17:58:35.519Z,4.07
2022-09-13T18:01:07.014Z,3.00
2022-09-13T18:03:36.322Z,6.20
2022-09-13T18:06:04.296Z,4.00
2022-09-13T18:08:33.537Z,1.75
2022-09-13T18:11:13.522Z,4.28
2022-09-13T18:13:44.442Z,4.30
2022-09-13T18:16:20.019Z,3.63
2022-09-13T18:18:48.487Z,3.10
2022-09-13T18:21:18.535Z,3.03
2022-09-13T18:23:46.910Z,2.50
2022-09-13T18:26:15.941Z,1.50
2022-09-13T18:28:45.966Z,5.70
2022-09-13T18:31:15.850Z,4.03
2022-09-13T18:33:43.049Z,3.13
2022-09-13T18:36:12.688Z,3.60
2022-09-13T18:38:41.858Z,2.67
2022-09-13T18:41:14.621Z,3.35
2022-09-13T18:43:42.842Z,3.53
2022-09-13T18:46:12.822Z,3.15
2022-09-13T18:48:47.845Z,5.00
2022-09-13T18:51:17.929Z,3.55
2022-09-13T18:53:46.223Z,4.00
2022-09-13T18:56:15.961Z,5.30
2022-09-13T18:58:44.243Z,6.00
2022-09-13T19:01:25.943Z,2.95
2022-09-13T19:03:59.242Z,3.72
2022-09-13T19:06:38.611Z,2.53
2022-09-13T19:09:08.714Z,5.60
2022-09-13T19:11:47.416Z,3.30
2022-09-13T19:14:17.121Z,5.78
2022-09-13T19:16:46.048Z,2.78
2022-09-13T19:19:12.986Z,5.65
2022-09-13T19:21:39.840Z,3.45
2022-09-13T19:24:11.688Z,3.70
2022-09-13T19:26:40.449Z,6.68
2022-09-13T19:29:11.305Z,3.85
2022-09-13T19:31:40.988Z,6.07
2022-09-13T19:34:08.074Z,4.18
2022-09-13T19:36:36.646Z,5.63
2022-09-13T19:39:05.018Z,2.35
2022-09-13T19:41:31.926Z,3.67
2022-09-13T19:44:00.625Z,5.47
2022-09-13T19:46:31.505Z,2.00
2022-09-13T19:48:59.621Z,7.70
2022-09-13T19:51:35.626Z,4.85
2022-09-13T19:54:03.652Z,4.00
2022-09-13T19:56:35.691Z,3.17
2022-09-13T19:59:02.994Z,3.05
2022-09-13T20:01:35.402Z,6.00
2022-09-13T20:04:04.535Z,4.43
2022-09-13T20:06:39.645Z,3.65
2022-09-13T20:09:06.877Z,1.02
2022-09-13T20:11:35.143Z,3.55
2022-09-13T20:14:05.892Z,3.03
2022-09-13T20:16:35.221Z,3.38
2022-09-13T20:19:07.821Z,3.08
2022-09-13T20:21:45.425Z,2.55
2022-09-13T20:24:11.883Z,3.33
2022-09-13T20:26:38.430Z,2.88
2022-09-13T20:29:07.349Z,2.75
2022-09-13T20:31:36.531Z,7.20
2022-09-13T20:34:06.237Z,3.03
2022-09-13T20:36:34.815Z,1.50
2022-09-13T20:39:03.674Z,2.55
2022-09-13T20:41:31.319Z,2.42
2022-09-13T20:44:01.844Z,5.75
2022-09-13T20:46:31.236Z,3.63
2022-09-13T20:48:57.913Z,3.85
2022-09-13T20:51:25.450Z,3.55
2022-09-13T20:53:58.014Z,5.47
2022-09-13T20:56:24.840Z,2.03
2022-09-13T20:58:57.541Z,1.33
2022-09-13T21:01:25.337Z,2.60
2022-09-13T21:03:54.109Z,3.47
2022-09-13T21:06:22.672Z,1.95
2022-09-13T21:08:50.565Z,1.30
2022-09-13T21:11:26.982Z,2.33
2022-09-13T21:13:59.909Z,2.53
2022-09-13T21:16:33.149Z,2.03
2022-09-13T21:19:03.491Z,5.55
2022-09-13T21:21:32.229Z,4.22
2022-09-13T21:24:00.482Z,3.88
2022-09-13T21:26:28.700Z,6.43
2022-09-13T21:28:56.818Z,1.15
2022-09-13T21:31:26.242Z,1.40
2022-09-13T21:34:00.406Z,3.42
2022-09-13T21:36:28.073Z,2.72
2022-09-13T21:38:55.790Z,5.65
2022-09-13T21:41:24.213Z,3.28
2022-09-13T21:43:51.118Z,4.32
2022-09-13T21:46:38.199Z,5.18
2022-09-13T21:49:06.601Z,2.88
2022-09-13T21:51:37.139Z,3.17
2022-09-13T21:54:07.991Z,1.85
2022-09-13T21:56:38.295Z,3.03
2022-09-13T21:59:08.685Z,4.75
2022-09-13T22:01:41.105Z,2.78
2022-09-13T22:04:12.454Z,5.40
2022-09-13T22:06:38.962Z,6.22
2022-09-13T22:09:07.690Z,1.77
2022-09-13T22:11:38.647Z,1.30
2022-09-13T22:14:07.344Z,2.35
2022-09-13T22:16:37.047Z,4.15
2022-09-13T22:19:09.987Z,1.70
2022-09-13T22:21:39.247Z,3.13
2022-09-13T22:24:07.716Z,2.42
2022-09-13T22:26:39.430Z,1.83
2022-09-13T22:29:07.454Z,2.58
2022-09-13T22:31:36.424Z,2.63
2022-09-13T22:34:03.768Z,2.25
2022-09-13T22:36:30.502Z,2.30
2022-09-13T22:38:57.646Z,2.00
2022-09-13T22:41:29.898Z,2.08
2022-09-13T22:44:01.432Z,1.90
2022-09-13T22:46:42.777Z,2.53
2022-09-13T22:49:13.126Z,2.95
2022-09-13T22:51:39.618Z,3.50
2022-09-13T22:54:07.994Z,3.85
2022-09-13T22:56:36.092Z,2.05
2022-09-13T22:59:06.151Z,1.35
2022-09-13T23:01:33.043Z,2.35
2022-09-13T23:04:00.763Z,1.65
2022-09-13T23:06:28.714Z,1.77
2022-09-13T23:08:58.054Z,1.58
2022-09-13T23:11:36.317Z,1.58
2022-09-13T23:14:14.704Z,1.17
2022-09-13T23:16:46.506Z,1.35
2022-09-13T23:19:14.994Z,1.95
2022-09-13T23:21:42.537Z,2.28
2022-09-13T23:24:15.347Z,2.30
2022-09-13T23:26:43.235Z,3.70
2022-09-13T23:29:15.403Z,3.25
2022-09-13T23:31:43.173Z,2.40
2022-09-13T23:34:11.196Z,2.25
2022-09-13T23:36:39.389Z,2.42
2022-09-13T23:39:08.532Z,2.20
2022-09-13T23:41:35.869Z,2.83
2022-09-13T23:44:02.695Z,2.97
2022-09-13T23:46:29.875Z,4.45
2022-09-13T23:48:56.688Z,1.35
2022-09-13T23:51:25.218Z,4.40
2022-09-13T23:53:54.530Z,2.40
2022-09-13T23:56:21.017Z,1.55
2022-09-13T23:58:47.547Z,1.92
